createdAt,value
2023-10-31T00:00:15.822Z,45.69
2023-10-31T00:01:21.490Z,41.40
2023-10-31T00:02:26.769Z,42.44
2023-10-31T00:03:32.461Z,40.13
2023-10-31T00:04:34.293Z,39.00
2023-10-31T00:05:37.283Z,39.13
2023-10-31T00:06:40.214Z,37.56
2023-10-31T00:07:44.308Z,35.06
2023-10-31T00:08:48.628Z,34.60
2023-10-31T00:09:51.481Z,35.27
2023-10-31T00:10:56.420Z,37.50
2023-10-31T00:11:59.338Z,39.67
2023-10-31T00:13:02.174Z,39.00
2023-10-31T00:14:06.490Z,40.13
2023-10-31T00:15:09.554Z,43.60
2023-10-31T00:16:12.571Z,47.62
2023-10-31T00:17:18.363Z,42.00
2023-10-31T00:18:22.838Z,44.47
2023-10-31T00:19:26.919Z,43.13
2023-10-31T00:20:29.855Z,41.50
2023-10-31T00:21:32.657Z,41.81
2023-10-31T00:22:35.602Z,39.69
2023-10-31T00:23:45.737Z,38.44
2023-10-31T00:24:48.567Z,37.50
2023-10-31T00:25:52.638Z,38.00
2023-10-31T00:26:55.580Z,38.94
2023-10-31T00:27:58.402Z,40.81
2023-10-31T00:29:04.319Z,40.94
2023-10-31T00:30:09.086Z,40.81
2023-10-31T00:31:13.699Z,42.94
2023-10-31T00:32:16.641Z,40.00
2023-10-31T00:33:19.590Z,40.19
2023-10-31T00:34:24.171Z,40.00
2023-10-31T00:35:26.976Z,43.19
2023-10-31T00:36:29.893Z,37.69
2023-10-31T00:37:32.712Z,37.75
2023-10-31T00:38:35.629Z,40.00
2023-10-31T00:39:39.786Z,39.69
2023-10-31T00:40:42.707Z,40.38
2023-10-31T00:41:45.831Z,38.44
2023-10-31T00:42:48.643Z,40.06
2023-10-31T00:43:51.482Z,39.88
2023-10-31T00:44:55.978Z,45.44
2023-10-31T00:45:58.833Z,45.69
2023-10-31T00:47:01.842Z,45.00
2023-10-31T00:48:04.815Z,47.60
2023-10-31T00:49:07.699Z,47.20
2023-10-31T00:50:10.769Z,42.80
2023-10-31T00:51:13.637Z,39.63
2023-10-31T00:52:16.445Z,36.80
2023-10-31T00:53:19.313Z,39.81
2023-10-31T00:54:22.136Z,39.75
2023-10-31T00:55:24.991Z,39.25
2023-10-31T00:56:27.945Z,38.94
2023-10-31T00:57:30.778Z,36.13
2023-10-31T00:58:33.618Z,36.38
2023-10-31T00:59:38.228Z,33.88
2023-10-31T01:00:41.107Z,34.50
2023-10-31T01:01:44.473Z,34.69
2023-10-31T01:02:47.407Z,33.93
2023-10-31T01:03:50.323Z,34.94
2023-10-31T01:04:53.147Z,33.87
2023-10-31T01:05:57.451Z,35.00
2023-10-31T01:07:01.945Z,29.94
2023-10-31T01:08:07.919Z,28.31
2023-10-31T01:09:11.324Z,27.56
2023-10-31T01:10:19.425Z,26.25
2023-10-31T01:11:18.993Z,28.00
2023-10-31T01:12:21.881Z,6.37
2023-10-31T01:13:24.698Z,31.87
2023-10-31T01:14:27.496Z,28.38
2023-10-31T01:15:30.303Z,27.25
2023-10-31T01:16:33.288Z,29.31
2023-10-31T01:17:36.148Z,29.37
2023-10-31T01:18:41.655Z,29.19
2023-10-31T01:19:44.496Z,28.94
2023-10-31T01:20:47.442Z,29.37
2023-10-31T01:21:50.333Z,29.31
2023-10-31T01:22:53.231Z,28.12
2023-10-31T01:23:56.071Z,31.44
2023-10-31T01:25:00.339Z,28.56
2023-10-31T01:26:05.264Z,28.00
2023-10-31T01:27:07.677Z,26.06
2023-10-31T01:28:10.532Z,26.31
2023-10-31T01:29:13.377Z,28.94
2023-10-31T01:30:17.013Z,31.07
2023-10-31T01:31:19.846Z,28.38
2023-10-31T01:32:23.094Z,29.56
2023-10-31T01:33:26.201Z,28.19
2023-10-31T01:34:29.090Z,27.62
2023-10-31T01:35:31.911Z,27.75
2023-10-31T01:36:34.871Z,23.38
2023-10-31T01:37:37.720Z,27.50
2023-10-31T01:38:40.564Z,23.69
2023-10-31T01:39:43.412Z,27.69
2023-10-31T01:40:47.763Z,28.75
2023-10-31T01:41:53.435Z,27.94
2023-10-31T01:42:57.984Z,27.44
2023-10-31T01:44:00.895Z,26.50
2023-10-31T01:45:08.844Z,30.00
2023-10-31T01:46:12.996Z,24.69
2023-10-31T01:47:15.854Z,27.94
2023-10-31T01:48:18.962Z,25.94
2023-10-31T01:49:21.934Z,29.12
2023-10-31T01:50:25.366Z,23.69
2023-10-31T01:51:31.079Z,28.06
2023-10-31T01:52:34.064Z,28.75
2023-10-31T01:53:37.964Z,29.06
2023-10-31T01:54:40.928Z,20.88
2023-10-31T01:55:44.432Z,28.75
2023-10-31T01:56:48.795Z,26.44
2023-10-31T01:57:51.620Z,29.75
2023-10-31T01:58:54.549Z,25.12
2023-10-31T01:59:57.589Z,27.56
2023-10-31T02:01:01.065Z,26.56
2023-10-31T02:02:06.377Z,15.44
2023-10-31T02:03:09.375Z,27.44
2023-10-31T02:04:14.929Z,26.80
2023-10-31T02:05:16.940Z,29.69
2023-10-31T02:06:19.854Z,31.37
2023-10-31T02:07:22.641Z,27.94
2023-10-31T02:08:27.000Z,29.44
2023-10-31T02:09:29.871Z,28.38
2023-10-31T02:10:32.745Z,24.63
2023-10-31T02:11:35.626Z,27.25
2023-10-31T02:12:38.849Z,28.19
2023-10-31T02:13:43.444Z,28.12
2023-10-31T02:14:46.288Z,24.80
2023-10-31T02:15:49.304Z,30.31
2023-10-31T02:16:52.668Z,28.00
2023-10-31T02:17:55.691Z,29.00
2023-10-31T02:18:58.552Z,28.31
2023-10-31T02:20:01.523Z,23.25
2023-10-31T02:21:04.651Z,30.62
2023-10-31T02:22:07.431Z,27.81
2023-10-31T02:23:10.401Z,24.81
2023-10-31T02:24:13.288Z,26.75
2023-10-31T02:25:19.348Z,30.50
2023-10-31T02:26:22.325Z,28.00
2023-10-31T02:27:25.099Z,29.87
2023-10-31T02:28:27.921Z,27.87
2023-10-31T02:29:32.427Z,28.00
2023-10-31T02:30:35.761Z,28.81
2023-10-31T02:31:38.668Z,27.00
2023-10-31T02:32:42.054Z,25.50
2023-10-31T02:33:44.935Z,27.87
2023-10-31T02:34:50.743Z,28.19
2023-10-31T02:35:53.560Z,28.50
2023-10-31T02:36:56.411Z,27.69
2023-10-31T02:37:59.253Z,29.69
2023-10-31T02:39:02.219Z,27.56
2023-10-31T02:40:05.411Z,29.94
2023-10-31T02:41:09.723Z,24.63
2023-10-31T02:42:12.517Z,28.69
2023-10-31T02:43:15.325Z,28.25
2023-10-31T02:44:18.127Z,27.81
2023-10-31T02:45:20.996Z,28.81
2023-10-31T02:46:23.916Z,29.94
2023-10-31T02:47:26.791Z,28.75
2023-10-31T02:48:29.809Z,29.00
2023-10-31T02:49:33.865Z,24.63
2023-10-31T02:50:36.785Z,27.75
2023-10-31T02:51:39.581Z,29.44
2023-10-31T02:52:42.524Z,25.12
2023-10-31T02:53:45.416Z,27.81
2023-10-31T02:54:48.215Z,28.44
2023-10-31T02:55:51.040Z,27.44
2023-10-31T02:56:53.880Z,29.37
2023-10-31T02:57:56.709Z,25.62
2023-10-31T02:58:59.625Z,22.75
2023-10-31T03:00:02.569Z,29.00
2023-10-31T03:01:05.383Z,27.19
2023-10-31T03:02:08.334Z,27.50
2023-10-31T03:03:11.228Z,28.00
2023-10-31T03:04:14.093Z,27.81
2023-10-31T03:05:16.951Z,18.81
2023-10-31T03:06:19.871Z,29.12
2023-10-31T03:07:22.677Z,28.31
2023-10-31T03:08:26.980Z,30.56
2023-10-31T03:09:29.967Z,27.69
2023-10-31T03:10:32.832Z,30.81
2023-10-31T03:11:35.720Z,29.50
2023-10-31T03:12:38.542Z,28.56
2023-10-31T03:13:41.368Z,25.53
2023-10-31T03:14:44.307Z,23.87
2023-10-31T03:15:47.545Z,30.25
2023-10-31T03:16:52.215Z,31.31
2023-10-31T03:17:56.572Z,32.88
2023-10-31T03:18:59.695Z,30.94
2023-10-31T03:20:02.622Z,34.80
2023-10-31T03:21:05.494Z,34.13
2023-10-31T03:22:08.368Z,36.81
2023-10-31T03:23:11.269Z,35.81
2023-10-31T03:24:14.150Z,34.38
2023-10-31T03:25:17.028Z,36.00
2023-10-31T03:26:20.209Z,36.56
2023-10-31T03:27:23.021Z,31.75
2023-10-31T03:28:25.902Z,34.25
2023-10-31T03:29:28.782Z,32.88
2023-10-31T03:30:31.744Z,31.37
2023-10-31T03:31:36.304Z,33.50
2023-10-31T03:32:39.218Z,35.75
2023-10-31T03:33:42.605Z,29.06
2023-10-31T03:34:45.470Z,31.19
2023-10-31T03:35:48.371Z,32.38
2023-10-31T03:36:51.520Z,32.38
2023-10-31T03:37:54.391Z,28.69
2023-10-31T03:38:58.442Z,54.00
2023-10-31T03:40:01.254Z,44.07
2023-10-31T03:41:05.649Z,31.87
2023-10-31T03:42:08.577Z,35.00
2023-10-31T03:43:11.365Z,35.07
2023-10-31T03:44:14.265Z,34.63
2023-10-31T03:45:17.037Z,39.60
2023-10-31T03:46:19.964Z,41.63
2023-10-31T03:47:26.746Z,41.37
2023-10-31T03:48:29.571Z,35.69
2023-10-31T03:49:32.413Z,39.25
2023-10-31T03:50:35.307Z,29.75
2023-10-31T03:51:40.384Z,34.81
2023-10-31T03:52:46.304Z,34.50
2023-10-31T03:53:47.566Z,33.69
2023-10-31T03:54:50.410Z,32.69
2023-10-31T03:55:53.215Z,7.31
2023-10-31T03:56:56.079Z,31.31
2023-10-31T03:59:03.400Z,28.00
2023-10-31T03:59:36.061Z,29.44
2023-10-31T04:00:06.648Z,28.94
2023-10-31T04:01:09.480Z,31.19
2023-10-31T04:02:12.266Z,29.94
2023-10-31T04:03:15.171Z,28.06
2023-10-31T04:04:18.143Z,32.38
2023-10-31T04:05:22.450Z,28.56
2023-10-31T04:06:25.364Z,29.94
2023-10-31T04:07:28.163Z,29.12
2023-10-31T04:08:33.314Z,30.88
2023-10-31T04:09:35.378Z,32.13
2023-10-31T04:10:38.266Z,31.50
2023-10-31T04:11:41.138Z,32.75
2023-10-31T04:12:43.943Z,28.94
2023-10-31T04:13:48.261Z,32.94
2023-10-31T04:14:51.047Z,34.38
2023-10-31T04:15:53.867Z,30.19
2023-10-31T04:16:58.741Z,29.44
2023-10-31T04:18:01.655Z,32.25
2023-10-31T04:19:04.625Z,32.00
2023-10-31T04:20:07.980Z,29.50
2023-10-31T04:21:10.832Z,33.81
2023-10-31T04:22:13.673Z,31.25
2023-10-31T04:23:18.467Z,29.19
2023-10-31T04:24:20.865Z,31.37
2023-10-31T04:25:23.696Z,30.94
2023-10-31T04:26:26.558Z,32.25
2023-10-31T04:27:29.420Z,30.31
2023-10-31T04:28:32.310Z,31.06
2023-10-31T04:29:35.145Z,30.37
2023-10-31T04:30:38.066Z,30.62
2023-10-31T04:31:44.282Z,32.75
2023-10-31T04:32:46.807Z,32.06
2023-10-31T04:33:49.639Z,26.94
2023-10-31T04:34:52.560Z,34.50
2023-10-31T04:35:55.446Z,33.06
2023-10-31T04:36:59.328Z,29.75
2023-10-31T04:38:02.260Z,32.31
2023-10-31T04:39:05.136Z,30.19
2023-10-31T04:40:08.349Z,34.00
2023-10-31T04:41:11.283Z,31.19
2023-10-31T04:42:14.228Z,31.50
2023-10-31T04:43:17.157Z,32.56
2023-10-31T04:44:20.024Z,32.13
2023-10-31T04:45:22.795Z,32.31
2023-10-31T04:46:30.163Z,32.50
2023-10-31T04:47:33.218Z,27.00
2023-10-31T04:48:36.120Z,29.00
2023-10-31T04:49:41.267Z,28.50
2023-10-31T04:50:43.408Z,32.19
2023-10-31T04:51:46.260Z,31.94
2023-10-31T04:52:49.064Z,30.93
2023-10-31T04:53:51.959Z,29.31
2023-10-31T04:54:54.767Z,30.60
2023-10-31T04:55:57.638Z,31.56
2023-10-31T04:57:00.552Z,32.06
2023-10-31T04:58:05.094Z,31.50
2023-10-31T04:59:09.649Z,32.06
2023-10-31T05:00:15.913Z,26.31
2023-10-31T05:01:18.696Z,30.88
2023-10-31T05:02:24.435Z,31.12
2023-10-31T05:03:28.525Z,35.60
2023-10-31T05:04:31.489Z,35.93
2023-10-31T05:05:34.431Z,34.88
2023-10-31T05:06:38.564Z,34.13
2023-10-31T05:07:41.468Z,35.94
2023-10-31T05:08:46.851Z,37.81
2023-10-31T05:09:48.613Z,38.69
2023-10-31T05:10:51.533Z,38.13
2023-10-31T05:11:54.330Z,34.50
2023-10-31T05:12:57.174Z,35.19
2023-10-31T05:14:00.143Z,38.25
2023-10-31T05:15:02.970Z,38.06
2023-10-31T05:16:09.040Z,37.94
2023-10-31T05:17:11.962Z,41.81
2023-10-31T05:18:14.890Z,40.31
2023-10-31T05:19:38.045Z,37.69
2023-10-31T05:20:47.266Z,32.75
2023-10-31T05:22:02.985Z,34.31
2023-10-31T05:22:57.938Z,37.31
2023-10-31T05:24:02.819Z,36.56
2023-10-31T05:25:05.902Z,35.81
2023-10-31T05:26:08.805Z,36.38
2023-10-31T05:27:11.582Z,36.25
2023-10-31T05:28:14.386Z,28.53
2023-10-31T05:29:17.295Z,33.19
2023-10-31T05:30:21.923Z,34.20
2023-10-31T05:31:25.113Z,34.88
2023-10-31T05:32:29.627Z,34.47
2023-10-31T05:33:32.494Z,36.44
2023-10-31T05:34:35.562Z,35.25
2023-10-31T05:35:41.288Z,33.00
2023-10-31T05:36:44.339Z,34.69
2023-10-31T05:37:49.818Z,33.50
2023-10-31T05:38:54.481Z,36.13
2023-10-31T05:39:57.296Z,33.13
2023-10-31T05:41:00.196Z,36.69
2023-10-31T05:42:03.002Z,31.81
2023-10-31T05:43:05.831Z,29.94
2023-10-31T05:44:11.097Z,31.44
2023-10-31T05:45:13.866Z,32.19
2023-10-31T05:46:16.849Z,33.13
2023-10-31T05:47:19.816Z,32.50
2023-10-31T05:48:22.572Z,32.56
2023-10-31T05:49:25.498Z,35.94
2023-10-31T05:50:28.382Z,32.38
2023-10-31T05:51:31.187Z,34.81
2023-10-31T05:52:34.003Z,31.56
2023-10-31T05:53:36.800Z,31.56
2023-10-31T05:54:39.616Z,32.94
2023-10-31T05:55:42.520Z,31.87
2023-10-31T05:56:46.826Z,31.12
2023-10-31T05:57:49.654Z,30.31
2023-10-31T05:58:52.526Z,31.50
2023-10-31T05:59:57.018Z,31.37
2023-10-31T06:00:59.926Z,30.56
2023-10-31T06:02:02.990Z,34.06
2023-10-31T06:03:06.977Z,31.62
2023-10-31T06:04:09.773Z,32.63
2023-10-31T06:05:12.792Z,33.88
2023-10-31T06:06:15.659Z,32.38
2023-10-31T06:07:18.474Z,30.88
2023-10-31T06:08:21.323Z,34.44
2023-10-31T06:09:24.107Z,31.06
2023-10-31T06:10:26.969Z,32.44
2023-10-31T06:11:29.785Z,31.19
2023-10-31T06:12:33.811Z,27.13
2023-10-31T06:13:36.613Z,27.81
2023-10-31T06:14:39.410Z,29.69
2023-10-31T06:15:42.231Z,32.75
2023-10-31T06:16:45.346Z,34.27
2023-10-31T06:17:48.402Z,32.63
2023-10-31T06:18:53.013Z,35.53
2023-10-31T06:19:55.869Z,32.06
2023-10-31T06:21:00.760Z,37.33
2023-10-31T06:22:03.228Z,41.37
2023-10-31T06:23:06.314Z,69.37
2023-10-31T06:24:10.550Z,35.94
2023-10-31T06:25:13.457Z,32.38
2023-10-31T06:26:16.389Z,31.56
2023-10-31T06:27:19.237Z,32.38
2023-10-31T06:28:23.102Z,33.63
2023-10-31T06:29:43.343Z,34.38
2023-10-31T06:30:30.655Z,30.19
2023-10-31T06:31:41.910Z,31.87
2023-10-31T06:32:39.718Z,30.31
2023-10-31T06:33:42.683Z,34.50
2023-10-31T06:34:45.619Z,42.50
2023-10-31T06:35:50.162Z,32.60
2023-10-31T06:36:53.034Z,27.06
2023-10-31T06:37:58.190Z,33.38
2023-10-31T06:39:02.732Z,29.44
2023-10-31T06:40:06.037Z,28.56
2023-10-31T06:41:08.943Z,30.37
2023-10-31T06:42:11.837Z,32.50
2023-10-31T06:43:15.862Z,32.60
2023-10-31T06:44:18.771Z,31.80
2023-10-31T06:45:21.694Z,32.25
2023-10-31T06:46:24.610Z,29.81
2023-10-31T06:47:29.014Z,29.81
2023-10-31T06:48:31.965Z,29.81
2023-10-31T06:49:34.742Z,31.31
2023-10-31T06:50:37.614Z,30.19
2023-10-31T06:51:40.486Z,30.06
2023-10-31T06:52:43.341Z,24.50
2023-10-31T06:53:46.151Z,26.12
2023-10-31T06:54:48.950Z,26.25
2023-10-31T06:55:52.578Z,28.06
2023-10-31T06:56:55.547Z,27.56
2023-10-31T06:58:00.863Z,26.80
2023-10-31T06:59:04.386Z,28.12
2023-10-31T07:00:07.994Z,28.06
2023-10-31T07:01:10.877Z,28.50
2023-10-31T07:02:18.093Z,26.44
2023-10-31T07:03:24.075Z,26.00
2023-10-31T07:04:28.565Z,26.31
2023-10-31T07:05:31.856Z,24.94
2023-10-31T07:06:36.446Z,22.50
2023-10-31T07:07:39.273Z,23.50
2023-10-31T07:08:42.081Z,28.06
2023-10-31T07:09:44.911Z,25.69
2023-10-31T07:10:47.772Z,23.38
2023-10-31T07:11:50.629Z,20.31
2023-10-31T07:12:59.894Z,25.44
2023-10-31T07:13:59.627Z,21.94
2023-10-31T07:15:02.467Z,22.94
2023-10-31T07:16:05.797Z,26.37
2023-10-31T07:17:08.629Z,25.31
2023-10-31T07:18:11.535Z,17.44
2023-10-31T07:19:14.329Z,17.81
2023-10-31T07:20:17.283Z,20.44
2023-10-31T07:21:21.740Z,20.75
2023-10-31T07:22:24.555Z,18.31
2023-10-31T07:23:29.052Z,18.44
2023-10-31T07:24:33.798Z,19.00
2023-10-31T07:25:38.892Z,18.81
2023-10-31T07:26:40.763Z,20.94
2023-10-31T07:27:43.516Z,20.69
2023-10-31T07:28:49.394Z,16.62
2023-10-31T07:29:52.229Z,19.00
2023-10-31T07:30:55.099Z,17.19
2023-10-31T07:31:59.783Z,20.75
2023-10-31T07:33:02.705Z,12.37
2023-10-31T07:34:08.287Z,21.25
2023-10-31T07:35:11.197Z,16.50
2023-10-31T07:36:14.696Z,18.00
2023-10-31T07:37:18.612Z,18.44
2023-10-31T07:38:21.432Z,19.81
2023-10-31T07:39:26.667Z,18.31
2023-10-31T07:40:29.553Z,18.00
2023-10-31T07:41:32.404Z,17.56
2023-10-31T07:42:35.263Z,14.63
2023-10-31T07:43:39.054Z,17.31
2023-10-31T07:44:42.073Z,18.25
2023-10-31T07:45:44.896Z,17.31
2023-10-31T07:46:50.479Z,18.75
2023-10-31T07:47:53.286Z,17.06
2023-10-31T07:48:57.657Z,15.69
2023-10-31T07:50:00.583Z,15.81
2023-10-31T07:51:03.612Z,17.50
2023-10-31T07:52:06.614Z,12.06
2023-10-31T07:53:09.431Z,17.00
2023-10-31T07:54:12.301Z,20.06
2023-10-31T07:55:16.833Z,17.12
2023-10-31T07:56:20.032Z,11.69
2023-10-31T07:57:22.921Z,16.87
2023-10-31T07:58:25.726Z,16.00
2023-10-31T07:59:28.614Z,19.62
2023-10-31T08:00:31.509Z,16.00
2023-10-31T08:01:35.839Z,17.94
2023-10-31T08:02:38.723Z,17.87
2023-10-31T08:03:43.354Z,16.25
2023-10-31T08:04:47.477Z,14.19
2023-10-31T08:05:51.760Z,16.37
2023-10-31T08:06:54.709Z,17.06
2023-10-31T08:08:00.643Z,10.31
2023-10-31T08:09:02.024Z,16.62
2023-10-31T08:10:06.692Z,16.06
2023-10-31T08:11:11.949Z,16.50
2023-10-31T08:12:17.779Z,15.13
2023-10-31T08:13:22.107Z,15.06
2023-10-31T08:14:26.676Z,15.75
2023-10-31T08:15:29.306Z,12.63
2023-10-31T08:16:32.328Z,14.13
2023-10-31T08:17:35.355Z,14.69
2023-10-31T08:18:38.257Z,15.00
2023-10-31T08:19:43.941Z,14.44
2023-10-31T08:20:46.808Z,9.75
2023-10-31T08:21:49.600Z,11.56
2023-10-31T08:22:52.436Z,16.00
2023-10-31T08:23:57.007Z,13.38
2023-10-31T08:24:59.833Z,9.44
2023-10-31T08:26:05.108Z,13.44
2023-10-31T08:27:08.785Z,12.37
2023-10-31T08:28:11.640Z,10.50
2023-10-31T08:29:15.687Z,9.63
2023-10-31T08:30:20.002Z,17.00
2023-10-31T08:31:22.894Z,15.81
2023-10-31T08:32:25.918Z,12.44
2023-10-31T08:33:28.853Z,12.56
2023-10-31T08:34:31.719Z,12.00
2023-10-31T08:35:34.534Z,16.50
2023-10-31T08:36:37.432Z,18.06
2023-10-31T08:37:42.190Z,15.25
2023-10-31T08:38:44.730Z,18.69
2023-10-31T08:39:47.545Z,12.69
2023-10-31T08:40:50.552Z,18.50
2023-10-31T08:41:54.227Z,18.87
2023-10-31T08:42:57.139Z,17.19
2023-10-31T08:43:59.964Z,17.94
2023-10-31T08:45:02.838Z,14.81
2023-10-31T08:46:06.022Z,15.88
2023-10-31T08:47:08.807Z,13.94
2023-10-31T08:48:11.652Z,15.69
2023-10-31T08:49:15.168Z,10.13
2023-10-31T08:50:19.737Z,15.94
2023-10-31T08:51:22.592Z,14.44
2023-10-31T08:52:25.402Z,12.13
2023-10-31T08:53:28.276Z,13.38
2023-10-31T08:54:31.144Z,14.00
2023-10-31T08:55:33.951Z,13.94
2023-10-31T08:56:36.831Z,13.62
2023-10-31T08:57:39.597Z,14.31
2023-10-31T08:58:43.995Z,11.69
2023-10-31T08:59:46.814Z,11.88
2023-10-31T09:00:51.645Z,10.75
2023-10-31T09:01:55.812Z,13.06
2023-10-31T09:02:58.751Z,12.00
2023-10-31T09:04:01.658Z,12.25
2023-10-31T09:05:05.756Z,14.31
2023-10-31T09:06:10.270Z,11.31
2023-10-31T09:07:13.070Z,11.94
2023-10-31T09:08:15.878Z,12.00
2023-10-31T09:09:18.750Z,11.56
2023-10-31T09:10:21.654Z,12.88
2023-10-31T09:11:24.592Z,10.06
2023-10-31T09:12:28.120Z,11.94
2023-10-31T09:13:32.873Z,9.81
2023-10-31T09:14:35.709Z,13.13
2023-10-31T09:15:41.781Z,11.56
2023-10-31T09:16:44.664Z,13.25
2023-10-31T09:17:50.898Z,10.19
2023-10-31T09:18:51.836Z,13.88
2023-10-31T09:19:55.832Z,14.19
2023-10-31T09:20:58.698Z,13.06
2023-10-31T09:22:01.563Z,10.50
2023-10-31T09:23:04.397Z,11.81
2023-10-31T09:24:09.152Z,10.94
2023-10-31T09:25:12.217Z,7.56
2023-10-31T09:26:15.397Z,12.31
2023-10-31T09:27:19.153Z,9.75
2023-10-31T09:28:22.008Z,11.38
2023-10-31T09:29:29.708Z,9.44
2023-10-31T09:30:30.796Z,8.75
2023-10-31T09:31:38.624Z,11.63
2023-10-31T09:32:38.197Z,9.44
2023-10-31T09:33:41.197Z,11.12
2023-10-31T09:34:44.061Z,11.31
2023-10-31T09:35:51.580Z,5.87
2023-10-31T09:36:56.159Z,11.31
2023-10-31T09:37:59.128Z,11.56
2023-10-31T09:39:04.897Z,11.81
2023-10-31T09:40:06.932Z,10.81
2023-10-31T09:41:11.683Z,10.44
2023-10-31T09:42:14.781Z,6.56
2023-10-31T09:43:17.631Z,11.06
2023-10-31T09:44:20.551Z,9.38
2023-10-31T09:45:23.452Z,10.81
2023-10-31T09:46:28.575Z,10.94
2023-10-31T09:47:31.845Z,4.12
2023-10-31T09:48:35.225Z,10.69
2023-10-31T09:49:38.583Z,10.88
2023-10-31T09:50:42.455Z,9.25
2023-10-31T09:51:48.256Z,10.31
2023-10-31T09:52:55.155Z,10.00
2023-10-31T09:53:59.326Z,9.19
2023-10-31T09:55:02.602Z,9.75
2023-10-31T09:56:07.429Z,11.38
2023-10-31T09:57:11.990Z,9.19
2023-10-31T09:58:14.829Z,5.87
2023-10-31T09:59:17.784Z,9.56
2023-10-31T10:00:22.397Z,8.00
2023-10-31T10:01:26.405Z,9.00
2023-10-31T10:02:29.465Z,9.63
2023-10-31T10:03:32.842Z,8.25
2023-10-31T10:04:35.920Z,10.06
2023-10-31T10:05:40.227Z,7.31
2023-10-31T10:07:02.279Z,9.13
2023-10-31T10:08:06.642Z,8.13
2023-10-31T10:09:09.385Z,8.63
2023-10-31T10:10:15.008Z,7.62
2023-10-31T10:11:18.037Z,8.06
2023-10-31T10:12:25.150Z,5.56
2023-10-31T10:13:29.294Z,8.13
2023-10-31T10:14:33.373Z,8.75
2023-10-31T10:15:49.471Z,4.25
2023-10-31T10:16:53.356Z,9.50
2023-10-31T10:17:59.213Z,8.81
2023-10-31T10:19:16.388Z,8.56
2023-10-31T10:20:21.686Z,7.94
2023-10-31T10:21:24.091Z,6.50
2023-10-31T10:22:28.399Z,9.38
2023-10-31T10:23:34.800Z,10.56
2023-10-31T10:24:36.881Z,8.63
2023-10-31T10:25:43.453Z,9.06
2023-10-31T10:26:44.633Z,8.38
2023-10-31T10:27:47.496Z,9.44
2023-10-31T10:28:50.241Z,7.12
2023-10-31T10:29:54.624Z,10.19
2023-10-31T10:30:57.614Z,9.69
2023-10-31T10:32:00.500Z,8.25
2023-10-31T10:33:03.371Z,6.50
2023-10-31T10:34:06.387Z,9.50
2023-10-31T10:35:11.324Z,8.25
2023-10-31T10:36:14.933Z,9.19
2023-10-31T10:37:19.507Z,7.31
2023-10-31T10:38:23.285Z,7.94
2023-10-31T10:39:26.081Z,9.00
2023-10-31T10:40:28.941Z,9.00
2023-10-31T10:41:36.015Z,9.50
2023-10-31T10:42:41.400Z,8.50
2023-10-31T10:43:44.335Z,10.56
2023-10-31T10:44:53.853Z,8.00
2023-10-31T10:45:59.939Z,5.56
2023-10-31T10:47:06.364Z,8.13
2023-10-31T10:48:13.432Z,7.56
2023-10-31T10:49:15.891Z,9.13
2023-10-31T10:50:20.186Z,6.94
2023-10-31T10:51:24.545Z,6.69
2023-10-31T10:52:36.361Z,7.31
2023-10-31T10:53:52.706Z,9.31
2023-10-31T10:54:57.154Z,8.44
2023-10-31T10:56:04.252Z,7.75
2023-10-31T10:57:17.545Z,6.94
2023-10-31T10:58:21.839Z,9.19
2023-10-31T10:59:27.295Z,9.44
2023-10-31T11:00:31.948Z,7.75
2023-10-31T11:01:35.928Z,7.94
2023-10-31T11:02:40.232Z,7.62
2023-10-31T11:03:43.301Z,8.44
2023-10-31T11:04:46.136Z,8.44
2023-10-31T11:05:49.083Z,7.81
2023-10-31T11:06:53.345Z,8.63
2023-10-31T11:07:58.740Z,10.31
2023-10-31T11:09:04.173Z,10.06
2023-10-31T11:10:07.374Z,7.94
2023-10-31T11:11:10.760Z,9.13
2023-10-31T11:12:16.043Z,8.81
2023-10-31T11:13:18.983Z,6.62
2023-10-31T11:14:21.871Z,8.06
2023-10-31T11:15:25.202Z,7.87
2023-10-31T11:16:29.659Z,9.63
2023-10-31T11:17:34.416Z,12.00
2023-10-31T11:18:37.395Z,10.19
2023-10-31T11:19:43.539Z,10.75
2023-10-31T11:20:45.103Z,8.25
2023-10-31T11:21:58.660Z,9.56
2023-10-31T11:23:02.863Z,7.81
2023-10-31T11:24:07.157Z,6.12
2023-10-31T11:25:16.646Z,6.94
2023-10-31T11:26:18.305Z,7.50
2023-10-31T11:27:21.152Z,7.62
2023-10-31T11:28:23.960Z,8.38
2023-10-31T11:29:33.779Z,8.31
2023-10-31T11:30:33.098Z,7.12
2023-10-31T11:31:37.388Z,7.75
2023-10-31T11:32:42.642Z,6.12
2023-10-31T11:33:45.510Z,7.56
2023-10-31T11:34:48.314Z,8.88
2023-10-31T11:35:52.610Z,8.75
2023-10-31T11:36:57.007Z,8.06
2023-10-31T11:38:03.592Z,6.56
2023-10-31T11:39:13.603Z,5.31
2023-10-31T11:40:22.929Z,7.12
2023-10-31T11:41:25.767Z,8.63
2023-10-31T11:42:29.253Z,7.56
2023-10-31T11:43:37.505Z,8.00
2023-10-31T11:44:41.814Z,7.62
2023-10-31T11:45:45.952Z,7.31
2023-10-31T11:46:51.011Z,7.31
2023-10-31T11:47:53.794Z,8.00
2023-10-31T11:48:57.384Z,7.37
2023-10-31T11:50:00.630Z,16.37
2023-10-31T11:51:03.662Z,26.94
2023-10-31T11:52:16.882Z,16.56
2023-10-31T11:53:19.856Z,9.69
2023-10-31T11:54:22.699Z,8.31
2023-10-31T11:55:25.852Z,9.50
2023-10-31T11:56:31.561Z,8.13
2023-10-31T11:57:34.426Z,9.31
2023-10-31T11:58:37.274Z,9.88
2023-10-31T11:59:42.962Z,4.25
2023-10-31T12:00:46.458Z,8.69
2023-10-31T12:01:49.269Z,9.00
2023-10-31T12:02:59.739Z,8.75
2023-10-31T12:04:05.194Z,9.69
2023-10-31T12:05:10.588Z,8.63
2023-10-31T12:06:14.884Z,9.56
2023-10-31T12:07:19.167Z,8.31
2023-10-31T12:08:41.298Z,5.50
2023-10-31T12:09:50.068Z,7.44
2023-10-31T12:10:53.264Z,7.56
2023-10-31T12:11:56.050Z,8.19
2023-10-31T12:12:59.491Z,7.81
2023-10-31T12:14:05.660Z,7.62
2023-10-31T12:15:09.376Z,8.31
2023-10-31T12:16:14.110Z,5.19
2023-10-31T12:17:17.034Z,6.19
2023-10-31T12:18:23.712Z,7.87
2023-10-31T12:19:28.219Z,6.37
2023-10-31T12:20:31.479Z,8.00
2023-10-31T12:21:43.564Z,8.56
2023-10-31T12:22:46.336Z,8.94
2023-10-31T12:23:49.244Z,7.75
2023-10-31T12:24:52.037Z,11.31
2023-10-31T12:25:55.227Z,9.19
2023-10-31T12:26:59.579Z,8.06
2023-10-31T12:28:02.503Z,7.31
2023-10-31T12:29:12.903Z,7.12
2023-10-31T12:30:16.813Z,8.06
2023-10-31T12:31:19.676Z,10.38
2023-10-31T12:32:22.568Z,11.75
2023-10-31T12:33:27.865Z,9.25
2023-10-31T12:34:30.658Z,13.13
2023-10-31T12:35:33.643Z,16.44
2023-10-31T12:36:38.811Z,14.50
2023-10-31T12:37:41.610Z,12.81
2023-10-31T12:38:47.660Z,12.19
2023-10-31T12:39:50.534Z,7.12
2023-10-31T12:40:54.094Z,12.44
2023-10-31T12:41:57.358Z,12.44
2023-10-31T12:43:00.529Z,8.81
2023-10-31T12:44:03.717Z,9.44
2023-10-31T12:45:06.834Z,7.31
2023-10-31T12:46:27.745Z,7.56
2023-10-31T12:47:35.828Z,9.13
2023-10-31T12:48:37.617Z,9.25
2023-10-31T12:49:40.444Z,12.19
2023-10-31T12:50:48.424Z,13.44
2023-10-31T12:52:01.142Z,13.00
2023-10-31T12:53:04.164Z,9.25
2023-10-31T12:54:07.074Z,12.13
2023-10-31T12:55:17.489Z,10.69
2023-10-31T12:56:37.379Z,9.50
2023-10-31T12:57:40.248Z,8.94
2023-10-31T12:58:46.887Z,10.25
2023-10-31T12:59:49.792Z,11.31
2023-10-31T13:00:52.656Z,9.00
2023-10-31T13:01:55.567Z,10.81
2023-10-31T13:03:08.254Z,9.00
2023-10-31T13:04:11.221Z,9.19
2023-10-31T13:05:18.389Z,8.31
2023-10-31T13:06:21.235Z,11.63
2023-10-31T13:07:30.089Z,13.00
2023-10-31T13:08:34.426Z,15.63
2023-10-31T13:09:38.208Z,9.19
2023-10-31T13:10:41.148Z,10.44
2023-10-31T13:11:43.930Z,8.94
2023-10-31T13:12:47.520Z,8.31
2023-10-31T13:13:54.209Z,11.19
2023-10-31T13:14:57.019Z,14.13
2023-10-31T13:15:59.872Z,14.63
2023-10-31T13:17:02.834Z,16.81
2023-10-31T13:18:05.816Z,14.94
2023-10-31T13:19:08.829Z,14.38
2023-10-31T13:20:12.896Z,12.44
2023-10-31T13:21:15.710Z,11.06
2023-10-31T13:22:18.500Z,9.50
2023-10-31T13:23:21.469Z,10.75
2023-10-31T13:24:24.424Z,6.56
2023-10-31T13:25:27.217Z,12.19
2023-10-31T13:26:31.799Z,12.94
2023-10-31T13:27:34.971Z,16.87
2023-10-31T13:28:37.872Z,17.62
2023-10-31T13:29:40.668Z,18.37
2023-10-31T13:30:43.527Z,16.69
2023-10-31T13:31:46.405Z,13.25
2023-10-31T13:32:49.291Z,16.12
2023-10-31T13:33:52.150Z,18.31
2023-10-31T13:34:55.129Z,12.88
2023-10-31T13:35:59.689Z,12.75
2023-10-31T13:37:02.462Z,13.69
2023-10-31T13:38:05.300Z,12.88
2023-10-31T13:39:08.105Z,10.81
2023-10-31T13:40:11.163Z,12.13
2023-10-31T13:41:13.971Z,12.19
2023-10-31T13:42:16.877Z,3.87
2023-10-31T13:43:19.674Z,10.81
2023-10-31T13:44:22.537Z,10.44
2023-10-31T13:45:25.330Z,8.06
2023-10-31T13:46:28.226Z,9.88
2023-10-31T13:47:31.109Z,11.38
2023-10-31T13:48:34.988Z,9.00